Time;durP1;ratioP1;P1;durP2;ratioP2;P2;SDS_P1;SDS_P2;PMS_P1;PMS_P2;Temp;Humidity;BMP_temperature;BMP_pressure;BME280_temperature;BME280_humidity;BME280_pressure;Samples;Min_cycle;Max_cycle;Signal;HPM_P1;HPM_P2
2022/06/25 00:01:15;;;;;;;5.53;4.97;;;;;;;;;;2092869;28;20032;-76
2022/06/25 00:02:33;;;;;;;5.55;4.43;;;;;;;;;;2089362;28;20020;-76
2022/06/25 00:03:52;;;;;;;4.90;4.50;;;;;;;;;;2091330;28;20037;-75
2022/06/25 00:05:30;;;;;;;6.03;4.72;;;;;;;;;;2090862;28;20045;-76
2022/06/25 00:06:48;;;;;;;5.50;4.43;;;;;;;;;;2091384;28;20025;-76
2022/06/25 00:08:07;;;;;;;4.80;4.50;;;;;;;;;;2091489;28;20032;-75
2022/06/25 00:09:26;;;;;;;5.10;4.60;;;;;;;;;;2088737;28;20029;-75
2022/06/25 00:10:45;;;;;;;5.88;4.70;;;;;;;;;;2089829;28;20025;-75
2022/06/25 00:13:42;;;;;;;4.97;4.57;;;;;;;;;;2089856;28;20032;-76
2022/06/25 00:15:05;;;;;;;5.25;4.80;;;;;;;;;;2091790;28;20037;-78
2022/06/25 00:16:24;;;;;;;;;;;;;;;;;;2091928;28;20037;-78
2022/06/25 00:17:43;;;;;;;5.15;4.75;;;;;;;;;;2088368;28;19912;-76
2022/06/25 00:19:02;;;;;;;5.80;4.93;;;;;;;;;;2091226;28;20093;-76
2022/06/25 00:20:21;;;;;;;5.45;4.95;;;;;;;;;;2091727;28;20457;-76
2022/06/25 00:21:40;;;;;;;5.72;5.15;;;;;;;;;;2091914;28;20020;-78
2022/06/25 00:22:59;;;;;;;6.30;5.10;;;;;;;;;;2090972;28;20033;-77
2022/06/25 00:24:18;;;;;;;5.90;5.13;;;;;;;;;;2089755;28;20037;-76
2022/06/25 00:25:37;;;;;;;5.03;4.63;;;;;;;;;;2091730;28;20014;-77
2022/06/25 00:26:56;;;;;;;5.55;4.90;;;;;;;;;;2092111;28;20037;-76
2022/06/25 00:28:15;;;;;;;5.00;4.70;;;;;;;;;;2091939;28;20049;-79
2022/06/25 00:29:34;;;;;;;5.25;4.95;;;;;;;;;;2090107;28;20025;-76
2022/06/25 00:30:53;;;;;;;5.75;5.20;;;;;;;;;;2086808;28;20501;-76
2022/06/25 00:32:12;;;;;;;4.60;4.40;;;;;;;;;;2087358;28;20033;-76
2022/06/25 00:33:31;;;;;;;4.80;4.53;;;;;;;;;;2090865;28;20092;-76
2022/06/25 00:34:50;;;;;;;5.15;4.85;;;;;;;;;;2092001;28;20021;-75
2022/06/25 00:36:09;;;;;;;5.15;4.75;;;;;;;;;;2088363;28;20017;-78
2022/06/25 00:37:27;;;;;;;5.97;5.53;;;;;;;;;;2091969;28;20033;-75
2022/06/25 00:38:46;;;;;;;5.75;5.25;;;;;;;;;;2091068;28;20029;-77
2022/06/25 00:40:06;;;;;;;5.97;5.15;;;;;;;;;;2092239;28;20021;-75
2022/06/25 00:41:25;;;;;;;5.75;5.30;;;;;;;;;;2090341;28;20591;-75
2022/06/25 00:42:44;;;;;;;5.55;5.15;;;;;;;;;;2090658;28;20029;-75
2022/06/25 00:44:07;;;;;;;5.07;4.68;;;;;;;;;;2090314;28;20029;-75
2022/06/25 00:45:26;;;;;;;5.80;5.30;;;;;;;;;;2091481;28;20032;-75
2022/06/25 00:46:46;;;;;;;5.10;4.70;;;;;;;;;;2092382;28;20014;-75
2022/06/25 00:48:05;;;;;;;6.22;5.63;;;;;;;;;;2091374;28;20408;-75
2022/06/25 00:49:24;;;;;;;5.15;4.68;;;;;;;;;;2090866;28;20025;-76
2022/06/25 00:50:43;;;;;;;5.50;5.00;;;;;;;;;;2091629;28;20474;-75
2022/06/25 00:52:07;;;;;;;5.00;4.63;;;;;;;;;;2090446;28;20067;-76
2022/06/25 00:53:32;;;;;;;7.22;4.97;;;;;;;;;;2092066;28;20017;-76
2022/06/25 00:54:53;;;;;;;5.30;4.90;;;;;;;;;;2089653;28;20062;-75
2022/06/25 00:56:13;;;;;;;5.60;5.20;;;;;;;;;;2091905;28;20029;-76
2022/06/25 00:57:32;;;;;;;6.35;5.70;;;;;;;;;;2090570;28;20036;-75
2022/06/25 00:58:52;;;;;;;5.50;4.97;;;;;;;;;;2087680;28;20021;-75
2022/06/25 01:00:14;;;;;;;5.90;5.40;;;;;;;;;;2090355;28;20053;-76
2022/06/25 01:01:34;;;;;;;6.00;5.50;;;;;;;;;;2091630;28;20025;-75
2022/06/25 01:02:53;;;;;;;6.05;5.10;;;;;;;;;;2091551;28;20644;-75
2022/06/25 01:04:11;;;;;;;5.75;5.38;;;;;;;;;;2091245;28;20465;-76
2022/06/25 01:05:30;;;;;;;6.55;5.88;;;;;;;;;;2091459;28;21222;-76
2022/06/25 01:06:49;;;;;;;6.10;5.45;;;;;;;;;;2091179;28;20025;-76
2022/06/25 01:08:08;;;;;;;6.03;5.43;;;;;;;;;;2090982;28;20037;-76
2022/06/25 01:09:27;;;;;;;7.90;5.53;;;;;;;;;;2089849;28;20473;-76
2022/06/25 01:10:46;;;;;;;6.18;5.57;;;;;;;;;;2091650;28;20033;-76
2022/06/25 01:12:07;;;;;;;5.47;5.10;;;;;;;;;;2091699;28;20103;-76
2022/06/25 01:13:26;;;;;;;5.70;5.15;;;;;;;;;;2090198;28;20474;-77
2022/06/25 01:14:45;;;;;;;5.55;5.07;;;;;;;;;;2090025;28;20025;-76
2022/06/25 01:16:04;;;;;;;5.47;5.00;;;;;;;;;;2090322;28;20032;-75
2022/06/25 01:17:23;;;;;;;6.22;5.18;;;;;;;;;;2090339;28;20040;-75
2022/06/25 01:18:41;;;;;;;5.85;5.35;;;;;;;;;;2090029;28;20033;-75
2022/06/25 01:20:00;;;;;;;5.57;5.18;;;;;;;;;;2093468;28;20040;-76
2022/06/25 01:21:19;;;;;;;5.80;5.40;;;;;;;;;;2093829;28;20033;-75
2022/06/25 01:22:38;;;;;;;5.57;5.15;;;;;;;;;;2092744;28;20068;-75
2022/06/25 01:23:57;;;;;;;6.07;5.60;;;;;;;;;;2095457;28;20059;-76
2022/06/25 01:25:16;;;;;;;5.88;5.38;;;;;;;;;;2088791;28;20025;-75
2022/06/25 01:26:36;;;;;;;5.90;5.50;;;;;;;;;;2092301;28;20022;-76
2022/06/25 01:27:55;;;;;;;7.65;4.97;;;;;;;;;;2093488;28;20480;-76
2022/06/25 01:29:14;;;;;;;5.82;5.43;;;;;;;;;;2093280;28;20033;-75
2022/06/25 01:30:33;;;;;;;5.93;5.38;;;;;;;;;;2091492;28;20060;-76
2022/06/25 01:31:53;;;;;;;5.90;5.40;;;;;;;;;;2092184;28;20625;-75
2022/06/25 01:33:11;;;;;;;7.75;6.03;;;;;;;;;;2092641;28;20037;-76
2022/06/25 01:34:30;;;;;;;6.07;5.47;;;;;;;;;;2092442;28;20032;-75
2022/06/25 01:35:49;;;;;;;5.68;5.25;;;;;;;;;;2091832;28;20083;-75
2022/06/25 01:37:08;;;;;;;5.55;5.13;;;;;;;;;;2094108;28;20518;-75
2022/06/25 01:38:27;;;;;;;6.22;5.72;;;;;;;;;;2092274;28;20044;-76
2022/06/25 01:39:46;;;;;;;5.57;5.18;;;;;;;;;;2091078;28;20025;-78
2022/06/25 01:41:05;;;;;;;5.80;5.30;;;;;;;;;;2092288;28;20513;-78
2022/06/25 01:44:02;;;;;;;7.03;5.43;;;;;;;;;;2092782;28;20406;-75
2022/06/25 01:45:21;;;;;;;5.90;5.30;;;;;;;;;;2092165;28;20036;-75
2022/06/25 01:46:40;;;;;;;6.47;5.57;;;;;;;;;;2092213;28;20033;-75
2022/06/25 01:47:59;;;;;;;5.50;5.20;;;;;;;;;;2093104;28;20138;-76
2022/06/25 01:49:18;;;;;;;5.32;4.80;;;;;;;;;;2093337;28;20024;-76
2022/06/25 01:50:38;;;;;;;5.68;5.20;;;;;;;;;;2091324;28;20040;-75
2022/06/25 01:51:56;;;;;;;5.20;4.80;;;;;;;;;;2088869;28;20025;-75
2022/06/25 01:53:15;;;;;;;6.40;5.70;;;;;;;;;;2090449;28;20040;-75
2022/06/25 01:54:34;;;;;;;5.35;5.00;;;;;;;;;;2089180;28;20029;-75
2022/06/25 01:55:53;;;;;;;6.13;5.72;;;;;;;;;;2091551;28;20417;-75
2022/06/25 01:57:12;;;;;;;5.20;4.80;;;;;;;;;;2092931;28;20029;-75
2022/06/25 01:58:31;;;;;;;6.18;5.65;;;;;;;;;;2092541;28;20033;-76
2022/06/25 01:59:51;;;;;;;5.70;5.30;;;;;;;;;;2091493;28;20024;-75
2022/06/25 02:01:10;;;;;;;6.18;5.72;;;;;;;;;;2091289;28;20037;-76
2022/06/25 02:02:30;;;;;;;8.07;5.30;;;;;;;;;;2092780;28;20025;-76
2022/06/25 02:03:48;;;;;;;6.05;5.00;;;;;;;;;;2091971;28;20037;-79
2022/06/25 02:05:08;;;;;;;6.07;5.57;;;;;;;;;;2089372;28;20025;-76
2022/06/25 02:06:27;;;;;;;5.35;5.00;;;;;;;;;;2092734;28;20025;-76
2022/06/25 02:07:45;;;;;;;6.35;5.82;;;;;;;;;;2092689;28;20029;-76
2022/06/25 02:09:04;;;;;;;6.30;5.68;;;;;;;;;;2092737;28;20103;-76
2022/06/25 02:10:23;;;;;;;5.78;5.28;;;;;;;;;;2091233;28;20029;-75
2022/06/25 02:11:42;;;;;;;7.07;5.57;;;;;;;;;;2091491;28;20033;-76
2022/06/25 02:13:01;;;;;;;6.03;5.43;;;;;;;;;;2093355;28;20040;-76
2022/06/25 02:14:20;;;;;;;5.28;4.85;;;;;;;;;;2090759;28;20545;-76
2022/06/25 02:15:40;;;;;;;5.70;5.20;;;;;;;;;;2092936;28;20060;-76
2022/06/25 02:16:59;;;;;;;5.70;5.18;;;;;;;;;;2092476;28;20056;-76
2022/06/25 02:18:18;;;;;;;7.18;5.68;;;;;;;;;;2092434;28;20028;-76
2022/06/25 02:19:37;;;;;;;5.47;5.07;;;;;;;;;;2091583;28;20497;-76
2022/06/25 02:20:55;;;;;;;5.75;5.45;;;;;;;;;;2088333;28;20041;-76
2022/06/25 02:22:14;;;;;;;5.50;5.10;;;;;;;;;;2092483;28;20033;-76
2022/06/25 02:23:33;;;;;;;5.63;5.13;;;;;;;;;;2092222;28;20395;-75
2022/06/25 02:24:53;;;;;;;6.47;5.25;;;;;;;;;;2090758;28;20561;-77
2022/06/25 02:26:12;;;;;;;5.28;4.97;;;;;;;;;;2091946;28;20120;-76
2022/06/25 02:27:31;;;;;;;5.53;5.13;;;;;;;;;;2090581;28;20116;-76
2022/06/25 02:28:50;;;;;;;5.78;5.28;;;;;;;;;;2089707;28;20025;-76
2022/06/25 02:30:09;;;;;;;5.55;5.05;;;;;;;;;;2091877;28;20490;-77
2022/06/25 02:31:27;;;;;;;4.97;4.57;;;;;;;;;;2089738;28;20045;-75
2022/06/25 02:32:46;;;;;;;5.30;5.00;;;;;;;;;;2092969;28;20491;-76
2022/06/25 02:34:05;;;;;;;5.22;4.82;;;;;;;;;;2090181;28;20040;-76
2022/06/25 02:35:25;;;;;;;5.20;4.80;;;;;;;;;;2090601;28;20024;-78
2022/06/25 02:36:44;;;;;;;5.00;4.50;;;;;;;;;;2092595;28;20060;-76
2022/06/25 02:38:03;;;;;;;6.80;4.93;;;;;;;;;;2093204;28;20506;-76
2022/06/25 02:39:22;;;;;;;5.10;4.80;;;;;;;;;;2091821;28;20025;-76
2022/06/25 02:40:41;;;;;;;5.20;4.90;;;;;;;;;;2091730;28;20043;-80
2022/06/25 02:42:00;;;;;;;5.28;4.72;;;;;;;;;;2086814;28;20037;-77
2022/06/25 02:43:19;;;;;;;7.03;5.30;;;;;;;;;;2086946;28;20029;-75
2022/06/25 02:44:37;;;;;;;4.78;4.38;;;;;;;;;;2091339;28;21017;-76
2022/06/25 02:45:56;;;;;;;4.68;4.32;;;;;;;;;;2090556;28;20424;-76
2022/06/25 02:47:15;;;;;;;6.55;4.93;;;;;;;;;;2090125;28;20472;-76
2022/06/25 02:48:34;;;;;;;5.03;4.63;;;;;;;;;;2091868;28;20502;-76
2022/06/25 02:49:53;;;;;;;7.68;5.57;;;;;;;;;;2092236;28;20573;-76
2022/06/25 02:51:12;;;;;;;5.07;4.78;;;;;;;;;;2091264;28;20034;-77
2022/06/25 02:52:30;;;;;;;5.43;4.85;;;;;;;;;;2087125;28;20037;-76
2022/06/25 02:53:49;;;;;;;5.05;4.65;;;;;;;;;;2089952;28;20032;-76
2022/06/25 02:55:08;;;;;;;5.82;4.82;;;;;;;;;;2089681;28;20128;-76
2022/06/25 02:59:43;;;;;;;5.47;4.97;;;;;;;;;;2092680;28;20017;-76
2022/06/25 03:01:01;;;;;;;5.10;4.72;;;;;;;;;;2090074;28;20029;-76
2022/06/25 03:02:20;;;;;;;5.03;4.63;;;;;;;;;;2091332;28;20112;-76
2022/06/25 03:03:39;;;;;;;5.70;5.30;;;;;;;;;;2087388;28;20065;-77
2022/06/25 03:04:59;;;;;;;5.95;5.35;;;;;;;;;;2090521;28;20060;-76
2022/06/25 03:06:18;;;;;;;5.57;4.60;;;;;;;;;;2090005;28;20091;-77
2022/06/25 03:07:37;;;;;;;5.05;4.75;;;;;;;;;;2092171;28;20112;-75
2022/06/25 03:08:56;;;;;;;4.90;4.60;;;;;;;;;;2091417;28;20024;-76
2022/06/25 03:10:14;;;;;;;4.85;4.45;;;;;;;;;;2091158;28;20495;-78
2022/06/25 03:11:33;;;;;;;5.47;5.00;;;;;;;;;;2089296;28;20110;-76
2022/06/25 03:12:52;;;;;;;4.95;4.60;;;;;;;;;;2091083;28;20032;-76
2022/06/25 03:14:11;;;;;;;5.07;4.70;;;;;;;;;;2088093;28;20033;-76
2022/06/25 03:15:30;;;;;;;5.03;4.47;;;;;;;;;;2091100;28;20503;-76
2022/06/25 03:16:49;;;;;;;5.20;4.70;;;;;;;;;;2090477;28;20446;-75
2022/06/25 03:18:08;;;;;;;5.22;4.82;;;;;;;;;;2090929;28;20514;-76
2022/06/25 03:19:27;;;;;;;5.25;4.82;;;;;;;;;;2089085;28;20032;-76
2022/06/25 03:20:45;;;;;;;6.22;5.25;;;;;;;;;;2090345;28;20604;-76
2022/06/25 03:22:04;;;;;;;4.88;4.47;;;;;;;;;;2092116;28;20044;-76
2022/06/25 03:23:23;;;;;;;5.15;4.68;;;;;;;;;;2089375;28;20025;-76
2022/06/25 03:24:42;;;;;;;5.07;4.72;;;;;;;;;;2091234;28;20033;-77
2022/06/25 03:26:02;;;;;;;5.90;4.50;;;;;;;;;;2090899;28;20041;-79
2022/06/25 03:27:21;;;;;;;4.80;4.22;;;;;;;;;;2091357;28;20033;-76
2022/06/25 03:28:40;;;;;;;4.45;4.05;;;;;;;;;;2090779;28;20025;-77
2022/06/25 03:29:58;;;;;;;6.10;5.00;;;;;;;;;;2090762;28;20036;-76
2022/06/25 03:31:17;;;;;;;4.45;4.15;;;;;;;;;;2089956;28;20453;-78
2022/06/25 03:32:36;;;;;;;4.78;4.38;;;;;;;;;;2090817;28;20418;-76
2022/06/25 03:33:55;;;;;;;4.18;3.95;;;;;;;;;;2091974;28;20068;-76
2022/06/25 03:35:14;;;;;;;4.85;4.50;;;;;;;;;;2092126;28;20033;-76
2022/06/25 03:36:33;;;;;;;8.55;4.78;;;;;;;;;;2088751;28;20041;-76
2022/06/25 03:37:52;;;;;;;4.72;4.43;;;;;;;;;;2088090;28;20044;-77
2022/06/25 03:39:11;;;;;;;4.82;4.53;;;;;;;;;;2087162;28;20025;-80
2022/06/25 03:40:30;;;;;;;5.57;4.72;;;;;;;;;;2091782;28;20021;-76
2022/06/25 03:41:48;;;;;;;6.22;4.68;;;;;;;;;;2090852;28;20040;-76
2022/06/25 03:43:09;;;;;;;4.65;4.35;;;;;;;;;;2092115;28;20037;-78
2022/06/25 03:44:28;;;;;;;4.75;4.35;;;;;;;;;;2090850;28;20040;-76
2022/06/25 03:45:47;;;;;;;5.05;4.65;;;;;;;;;;2088581;28;20029;-76
2022/06/25 03:47:06;;;;;;;6.32;4.20;;;;;;;;;;2089275;28;20406;-76
2022/06/25 03:48:24;;;;;;;5.43;4.88;;;;;;;;;;2091321;28;20382;-78
2022/06/25 03:49:43;;;;;;;5.20;4.60;;;;;;;;;;2091913;28;20025;-78
2022/06/25 03:51:02;;;;;;;4.97;4.50;;;;;;;;;;2093596;28;20025;-76
2022/06/25 03:52:21;;;;;;;4.40;4.10;;;;;;;;;;2091286;28;20202;-76
2022/06/25 03:53:40;;;;;;;4.78;4.38;;;;;;;;;;2090700;28;20029;-76
2022/06/25 03:54:58;;;;;;;5.35;4.80;;;;;;;;;;2089619;28;20044;-76
2022/06/25 03:56:17;;;;;;;4.80;4.40;;;;;;;;;;2092862;28;20029;-76
2022/06/25 03:57:36;;;;;;;6.03;4.55;;;;;;;;;;2089917;28;20033;-76
2022/06/25 03:58:55;;;;;;;5.20;4.70;;;;;;;;;;2091125;28;20029;-75
2022/06/25 04:00:15;;;;;;;4.47;4.18;;;;;;;;;;2090854;28;20029;-78
2022/06/25 04:01:34;;;;;;;5.03;4.63;;;;;;;;;;2092096;28;20025;-75
2022/06/25 04:02:53;;;;;;;4.85;4.47;;;;;;;;;;2091625;28;20024;-77
2022/06/25 04:04:11;;;;;;;4.90;4.60;;;;;;;;;;2091145;28;20032;-78
2022/06/25 04:05:31;;;;;;;4.65;4.30;;;;;;;;;;2092014;28;20598;-76
2022/06/25 04:06:49;;;;;;;4.70;4.30;;;;;;;;;;2089052;28;20104;-78
2022/06/25 04:08:08;;;;;;;4.95;4.43;;;;;;;;;;2090873;28;20068;-76
2022/06/25 04:09:27;;;;;;;5.85;4.75;;;;;;;;;;2092066;28;20028;-76
2022/06/25 04:10:46;;;;;;;4.60;4.07;;;;;;;;;;2089259;28;20088;-76
2022/06/25 04:12:05;;;;;;;8.32;4.85;;;;;;;;;;2088706;28;20044;-76
2022/06/25 04:13:24;;;;;;;4.85;4.55;;;;;;;;;;2091550;28;20033;-76
2022/06/25 04:14:43;;;;;;;6.40;4.45;;;;;;;;;;2092453;28;20032;-76
2022/06/25 04:16:02;;;;;;;5.05;4.65;;;;;;;;;;2091569;28;20036;-76
2022/06/25 04:17:21;;;;;;;4.80;4.38;;;;;;;;;;2089567;28;20033;-76
2022/06/25 04:18:40;;;;;;;4.90;4.60;;;;;;;;;;2091954;28;20414;-76
2022/06/25 04:19:59;;;;;;;5.18;4.72;;;;;;;;;;2092383;28;20025;-76
2022/06/25 04:21:18;;;;;;;5.57;4.78;;;;;;;;;;2091155;28;20537;-76
2022/06/25 04:22:37;;;;;;;4.78;4.38;;;;;;;;;;2091606;28;20040;-76
2022/06/25 04:23:56;;;;;;;5.18;4.78;;;;;;;;;;2089855;28;20033;-76
2022/06/25 04:25:14;;;;;;;4.95;4.65;;;;;;;;;;2092144;28;20436;-76
2022/06/25 04:26:33;;;;;;;4.90;4.50;;;;;;;;;;2091845;28;20052;-76
2022/06/25 04:29:30;;;;;;;4.70;4.40;;;;;;;;;;2091337;28;20111;-77
2022/06/25 04:30:49;;;;;;;4.85;4.55;;;;;;;;;;2089544;28;20045;-77
2022/06/25 04:32:08;;;;;;;5.10;4.60;;;;;;;;;;2092702;28;20068;-77
2022/06/25 04:33:27;;;;;;;8.27;4.32;;;;;;;;;;2091405;28;20037;-77
2022/06/25 04:34:46;;;;;;;4.65;4.25;;;;;;;;;;2088836;28;20501;-77
2022/06/25 04:36:05;;;;;;;4.93;4.57;;;;;;;;;;2091082;28;21146;-77
2022/06/25 04:37:23;;;;;;;4.40;4.10;;;;;;;;;;2090824;28;20033;-77
2022/06/25 04:38:43;;;;;;;4.30;4.00;;;;;;;;;;2090149;28;20045;-80
2022/06/25 04:40:01;;;;;;;5.38;4.40;;;;;;;;;;2090180;28;20040;-80
2022/06/25 04:41:20;;;;;;;5.03;4.43;;;;;;;;;;2090724;28;20044;-76
2022/06/25 04:42:39;;;;;;;4.78;4.47;;;;;;;;;;2090017;28;20032;-77
2022/06/25 04:44:01;;;;;;;4.63;4.40;;;;;;;;;;2090911;28;20029;-77
2022/06/25 04:45:20;;;;;;;4.65;4.20;;;;;;;;;;2089299;28;20021;-78
2022/06/25 04:46:39;;;;;;;4.68;4.38;;;;;;;;;;2092563;28;20033;-76
2022/06/25 04:47:59;;;;;;;6.68;4.80;;;;;;;;;;2089063;28;20033;-77
2022/06/25 04:49:18;;;;;;;4.95;4.20;;;;;;;;;;2089088;28;20032;-76
2022/06/25 04:50:37;;;;;;;5.22;4.75;;;;;;;;;;2090726;28;20406;-76
2022/06/25 04:51:56;;;;;;;4.88;4.47;;;;;;;;;;2089643;28;20025;-77
2022/06/25 04:53:14;;;;;;;5.30;4.40;;;;;;;;;;2092642;28;20032;-76
2022/06/25 04:54:33;;;;;;;4.55;4.25;;;;;;;;;;2090185;28;20413;-76
2022/06/25 04:55:52;;;;;;;5.22;4.82;;;;;;;;;;2093293;28;20036;-77
2022/06/25 04:57:11;;;;;;;4.80;4.50;;;;;;;;;;2091460;28;20498;-78
2022/06/25 04:58:30;;;;;;;5.13;4.63;;;;;;;;;;2091275;28;20215;-79
2022/06/25 04:59:49;;;;;;;4.80;4.40;;;;;;;;;;2093397;28;20024;-76
2022/06/25 05:01:08;;;;;;;4.53;4.22;;;;;;;;;;2092570;28;20044;-76
2022/06/25 05:02:27;;;;;;;4.15;3.95;;;;;;;;;;2093621;28;20016;-76
2022/06/25 05:03:46;;;;;;;8.73;4.70;;;;;;;;;;2092666;28;20021;-76
2022/06/25 05:05:06;;;;;;;4.60;4.32;;;;;;;;;;2095231;28;20036;-76
2022/06/25 05:06:25;;;;;;;4.93;4.20;;;;;;;;;;2096057;28;20064;-76
2022/06/25 05:07:43;;;;;;;4.07;3.70;;;;;;;;;;2092149;28;20028;-77
2022/06/25 05:09:03;;;;;;;4.78;4.30;;;;;;;;;;2091844;28;20167;-77
2022/06/25 05:10:21;;;;;;;4.53;4.20;;;;;;;;;;2093310;28;20041;-76
2022/06/25 05:11:41;;;;;;;4.45;4.07;;;;;;;;;;2093134;28;20501;-77
2022/06/25 05:13:12;;;;;;;3.95;3.72;;;;;;;;;;2090111;28;20076;-76
2022/06/25 05:14:31;;;;;;;4.30;3.90;;;;;;;;;;2090983;28;20032;-76
2022/06/25 05:15:50;;;;;;;8.30;4.45;;;;;;;;;;2092496;28;20029;-76
2022/06/25 05:17:09;;;;;;;4.50;4.07;;;;;;;;;;2092635;28;20430;-77
2022/06/25 05:18:28;;;;;;;4.38;4.18;;;;;;;;;;2088652;28;20120;-75
2022/06/25 05:19:47;;;;;;;4.70;4.28;;;;;;;;;;2093149;28;20037;-76
2022/06/25 05:21:06;;;;;;;4.72;4.30;;;;;;;;;;2093046;28;20457;-76
2022/06/25 05:22:24;;;;;;;4.00;3.80;;;;;;;;;;2093451;28;20056;-76
2022/06/25 05:23:44;;;;;;;4.57;4.25;;;;;;;;;;2094922;28;20037;-76
2022/06/25 05:25:03;;;;;;;4.07;3.70;;;;;;;;;;2088997;28;20428;-77
2022/06/25 05:26:22;;;;;;;4.55;4.15;;;;;;;;;;2088605;28;20021;-77
2022/06/25 05:27:41;;;;;;;4.80;3.63;;;;;;;;;;2092476;28;20060;-77
2022/06/25 05:29:00;;;;;;;3.72;3.42;;;;;;;;;;2092975;28;20048;-77
2022/06/25 05:30:18;;;;;;;3.83;3.63;;;;;;;;;;2089543;28;20037;-77
2022/06/25 05:31:37;;;;;;;4.07;3.67;;;;;;;;;;2089390;28;20020;-78
2022/06/25 05:32:56;;;;;;;4.10;3.90;;;;;;;;;;2092277;28;20065;-76
2022/06/25 05:34:15;;;;;;;5.47;3.95;;;;;;;;;;2094935;28;20494;-77
2022/06/25 05:35:34;;;;;;;4.25;3.90;;;;;;;;;;2092398;28;20656;-78
2022/06/25 05:36:52;;;;;;;4.65;3.80;;;;;;;;;;2092598;28;20024;-77
2022/06/25 05:38:11;;;;;;;4.25;3.83;;;;;;;;;;2091535;28;20036;-79
2022/06/25 05:39:30;;;;;;;4.13;3.72;;;;;;;;;;2091963;28;20120;-77
2022/06/25 05:40:49;;;;;;;5.65;3.92;;;;;;;;;;2091898;28;20025;-77
2022/06/25 05:42:08;;;;;;;4.10;3.80;;;;;;;;;;2093767;28;20040;-77
2022/06/25 05:43:27;;;;;;;4.00;3.80;;;;;;;;;;2091822;28;20029;-77
2022/06/25 05:44:47;;;;;;;3.53;3.33;;;;;;;;;;2093037;28;20033;-77
2022/06/25 05:46:06;;;;;;;5.85;3.65;;;;;;;;;;2091516;28;20028;-77
2022/06/25 05:47:25;;;;;;;5.38;3.42;;;;;;;;;;2088446;28;20494;-77
2022/06/25 05:48:44;;;;;;;4.85;3.60;;;;;;;;;;2089969;28;20053;-78
2022/06/25 05:50:04;;;;;;;5.18;4.18;;;;;;;;;;2092085;28;20024;-77
2022/06/25 05:51:23;;;;;;;4.15;3.38;;;;;;;;;;2089756;28;20478;-77
2022/06/25 05:52:42;;;;;;;4.07;3.60;;;;;;;;;;2089614;28;20399;-78
2022/06/25 05:54:01;;;;;;;3.83;3.63;;;;;;;;;;2088891;28;20488;-78
2022/06/25 05:55:19;;;;;;;5.38;3.35;;;;;;;;;;2087577;28;20032;-77
2022/06/25 05:56:38;;;;;;;4.07;3.50;;;;;;;;;;2091185;28;20032;-77
2022/06/25 05:57:58;;;;;;;4.00;3.70;;;;;;;;;;2091412;28;20045;-80
2022/06/25 05:59:17;;;;;;;3.75;3.45;;;;;;;;;;2086342;28;20056;-78
2022/06/25 06:00:36;;;;;;;6.05;3.65;;;;;;;;;;2090076;28;20028;-77
2022/06/25 06:01:55;;;;;;;4.00;3.60;;;;;;;;;;2090974;28;20108;-77
2022/06/25 06:03:14;;;;;;;3.22;2.90;;;;;;;;;;2091527;28;20123;-78
2022/06/25 06:04:33;;;;;;;5.43;3.63;;;;;;;;;;2092122;28;20386;-77
2022/06/25 06:05:52;;;;;;;3.70;3.50;;;;;;;;;;2092142;28;20028;-78
2022/06/25 06:07:11;;;;;;;3.88;3.20;;;;;;;;;;2088609;28;20115;-78
2022/06/25 06:08:29;;;;;;;3.90;3.63;;;;;;;;;;2092738;28;20036;-78
2022/06/25 06:09:49;;;;;;;3.30;3.10;;;;;;;;;;2091890;28;20115;-78
2022/06/25 06:11:07;;;;;;;3.63;3.30;;;;;;;;;;2093547;28;20037;-78
2022/06/25 06:12:27;;;;;;;4.03;3.40;;;;;;;;;;2090671;28;20033;-78
2022/06/25 06:13:45;;;;;;;3.25;3.10;;;;;;;;;;2092867;28;20033;-77
2022/06/25 06:15:04;;;;;;;3.70;3.40;;;;;;;;;;2090755;28;20506;-78
2022/06/25 06:16:23;;;;;;;3.67;3.35;;;;;;;;;;2089117;28;20052;-78
2022/06/25 06:17:42;;;;;;;6.00;3.03;;;;;;;;;;2090922;28;20037;-77
2022/06/25 06:19:01;;;;;;;3.72;3.10;;;;;;;;;;2091074;28;20036;-77
2022/06/25 06:20:20;;;;;;;4.70;3.40;;;;;;;;;;2090655;28;20032;-77
2022/06/25 06:21:39;;;;;;;4.22;2.95;;;;;;;;;;2091445;28;20029;-77
2022/06/25 06:22:58;;;;;;;4.43;2.97;;;;;;;;;;2091138;28;20033;-79
2022/06/25 06:24:17;;;;;;;3.92;3.00;;;;;;;;;;2091031;28;20041;-77
2022/06/25 06:25:36;;;;;;;3.25;3.05;;;;;;;;;;2091347;28;20116;-77
2022/06/25 06:26:55;;;;;;;3.60;3.30;;;;;;;;;;2090962;28;20056;-78
2022/06/25 06:28:14;;;;;;;3.83;3.08;;;;;;;;;;2091978;28;20032;-78
2022/06/25 06:29:33;;;;;;;3.08;2.85;;;;;;;;;;2090872;28;20025;-78
2022/06/25 06:30:52;;;;;;;4.35;3.20;;;;;;;;;;2091304;28;20044;-76
2022/06/25 06:32:12;;;;;;;3.40;3.10;;;;;;;;;;2090921;28;20041;-78
2022/06/25 06:33:31;;;;;;;3.58;3.17;;;;;;;;;;2092110;28;20107;-77
2022/06/25 06:34:49;;;;;;;4.47;3.13;;;;;;;;;;2091816;28;20036;-77
2022/06/25 06:36:08;;;;;;;3.60;3.30;;;;;;;;;;2093595;28;20052;-78
2022/06/25 06:37:27;;;;;;;3.38;3.08;;;;;;;;;;2092685;28;20036;-77
2022/06/25 06:38:46;;;;;;;4.22;3.33;;;;;;;;;;2091710;28;20029;-80
2022/06/25 06:40:06;;;;;;;3.33;3.13;;;;;;;;;;2091448;28;20029;-77
2022/06/25 06:41:25;;;;;;;3.13;2.92;;;;;;;;;;2093160;28;20033;-78
2022/06/25 06:42:44;;;;;;;3.10;2.90;;;;;;;;;;2090070;28;20021;-76
2022/06/25 06:44:03;;;;;;;3.92;3.22;;;;;;;;;;2091017;28;20494;-78
2022/06/25 06:45:22;;;;;;;3.53;3.03;;;;;;;;;;2091208;28;20049;-77
2022/06/25 06:46:41;;;;;;;5.38;3.30;;;;;;;;;;2091670;28;20036;-79
2022/06/25 06:48:00;;;;;;;4.90;3.10;;;;;;;;;;2091511;28;20029;-80
2022/06/25 06:49:19;;;;;;;3.30;3.10;;;;;;;;;;2098599;28;20060;-81
2022/06/25 06:50:38;;;;;;;3.97;2.92;;;;;;;;;;2090999;28;20544;-80
2022/06/25 06:51:57;;;;;;;3.13;2.92;;;;;;;;;;2087803;28;20608;-77
2022/06/25 06:53:16;;;;;;;3.30;3.00;;;;;;;;;;2089752;28;20060;-76
2022/06/25 06:54:35;;;;;;;6.88;3.08;;;;;;;;;;2089385;28;20029;-78
2022/06/25 06:55:54;;;;;;;3.10;2.60;;;;;;;;;;2090818;28;20029;-79
2022/06/25 06:57:13;;;;;;;3.25;2.97;;;;;;;;;;2093567;28;20028;-76
2022/06/25 06:58:32;;;;;;;3.95;3.10;;;;;;;;;;2088635;28;20025;-77
2022/06/25 06:59:51;;;;;;;3.60;2.75;;;;;;;;;;2087588;28;20929;-76
2022/06/25 07:01:09;;;;;;;3.63;3.30;;;;;;;;;;2090270;28;20020;-77
2022/06/25 07:02:28;;;;;;;4.28;3.15;;;;;;;;;;2091696;28;20398;-77
2022/06/25 07:03:50;;;;;;;3.10;2.90;;;;;;;;;;2092524;28;20104;-76
2022/06/25 07:05:09;;;;;;;3.47;3.17;;;;;;;;;;2092172;28;20025;-77
2022/06/25 07:06:28;;;;;;;2.65;2.55;;;;;;;;;;2091870;28;20101;-77
2022/06/25 07:07:50;;;;;;;2.58;2.47;;;;;;;;;;2092301;28;20115;-77
2022/06/25 07:09:09;;;;;;;3.10;2.78;;;;;;;;;;2089928;28;20033;-77
2022/06/25 07:10:28;;;;;;;2.78;2.58;;;;;;;;;;2087977;28;20441;-76
2022/06/25 07:11:47;;;;;;;4.25;2.67;;;;;;;;;;2090655;28;20037;-77
2022/06/25 07:13:06;;;;;;;2.78;2.55;;;;;;;;;;2091480;28;20041;-76
2022/06/25 07:14:25;;;;;;;2.67;2.53;;;;;;;;;;2091349;28;20033;-77
2022/06/25 07:15:43;;;;;;;3.17;2.97;;;;;;;;;;2090244;28;20516;-77
2022/06/25 07:17:03;;;;;;;3.50;2.60;;;;;;;;;;2091950;28;20422;-76
2022/06/25 07:18:21;;;;;;;2.85;2.65;;;;;;;;;;2090659;28;20418;-76
2022/06/25 07:19:40;;;;;;;4.30;2.83;;;;;;;;;;2089684;28;20392;-76
2022/06/25 07:20:59;;;;;;;3.05;2.78;;;;;;;;;;2090418;28;20414;-76
2022/06/25 07:22:18;;;;;;;4.93;2.88;;;;;;;;;;2092053;28;20041;-77
2022/06/25 07:23:37;;;;;;;4.32;2.58;;;;;;;;;;2092885;28;20486;-76
2022/06/25 07:24:56;;;;;;;2.60;2.40;;;;;;;;;;2092902;28;20112;-77
2022/06/25 07:26:16;;;;;;;5.28;2.80;;;;;;;;;;2091687;28;20029;-77
2022/06/25 07:27:34;;;;;;;2.70;2.50;;;;;;;;;;2090587;28;20032;-76
2022/06/25 07:28:54;;;;;;;2.60;2.40;;;;;;;;;;2091152;28;20109;-77
2022/06/25 07:30:13;;;;;;;3.83;2.97;;;;;;;;;;2090583;28;20037;-77
2022/06/25 07:31:32;;;;;;;4.97;2.67;;;;;;;;;;2091008;28;20460;-76
2022/06/25 07:32:51;;;;;;;2.97;2.67;;;;;;;;;;2091162;28;20029;-78
2022/06/25 07:34:09;;;;;;;2.80;2.70;;;;;;;;;;2091042;28;20033;-76
2022/06/25 07:35:29;;;;;;;3.33;2.78;;;;;;;;;;2089853;28;20082;-76
2022/06/25 07:36:47;;;;;;;3.47;3.05;;;;;;;;;;2092127;28;20020;-78
2022/06/25 07:38:06;;;;;;;4.38;2.65;;;;;;;;;;2090862;28;20036;-77
2022/06/25 07:39:25;;;;;;;2.72;2.53;;;;;;;;;;2091006;28;20201;-76
2022/06/25 07:40:44;;;;;;;3.08;2.58;;;;;;;;;;2092617;28;20032;-78
2022/06/25 07:42:03;;;;;;;4.53;2.60;;;;;;;;;;2087179;28;20037;-76
2022/06/25 07:43:25;;;;;;;30.95;9.45;;;;;;;;;;2090594;28;20029;-82
2022/06/25 07:44:44;;;;;;;5.40;3.75;;;;;;;;;;2090703;28;20025;-78
2022/06/25 07:46:04;;;;;;;29.98;7.70;;;;;;;;;;2089878;28;20021;-76
2022/06/25 07:47:23;;;;;;;3.70;3.22;;;;;;;;;;2089269;28;20032;-81
2022/06/25 07:48:42;;;;;;;2.72;2.53;;;;;;;;;;2089770;28;20040;-78
2022/06/25 07:51:57;;;;;;;3.15;2.88;;;;;;;;;;2090784;28;20033;-76
2022/06/25 07:53:16;;;;;;;2.85;2.63;;;;;;;;;;2088697;28;20506;-76
2022/06/25 07:54:35;;;;;;;5.18;2.90;;;;;;;;;;2087233;28;20068;-76
2022/06/25 07:55:54;;;;;;;2.63;2.40;;;;;;;;;;2093163;28;20037;-78
2022/06/25 07:57:14;;;;;;;4.65;2.72;;;;;;;;;;2091801;28;20040;-78
2022/06/25 07:58:33;;;;;;;4.80;2.53;;;;;;;;;;2091419;28;20032;-77
2022/06/25 07:59:52;;;;;;;2.60;2.40;;;;;;;;;;2089262;28;20037;-75
2022/06/25 08:01:10;;;;;;;7.15;2.53;;;;;;;;;;2089844;28;20036;-78
2022/06/25 08:02:29;;;;;;;3.80;2.55;;;;;;;;;;2088925;28;20037;-75
2022/06/25 08:03:48;;;;;;;2.75;2.55;;;;;;;;;;2089881;28;20498;-78
2022/06/25 08:05:08;;;;;;;2.75;2.55;;;;;;;;;;2089662;28;20028;-85